Terminal Aerodrome Forecast
Issued by NWS Flagstaff, AZ

Home | Current Version | Previous Version | Text Only | Print | Product List | Glossary On
Versions: 1 2 3 4 5 6 7 8 9 10 11 12 13 14 15 16
000
FTUS45 KFGZ 240533
TAFINW
TAF
KINW 240533Z 2406/2506 VRB06KT P6SM VCTS FEW080CB BKN120
      TEMPO 2406/2408 VRB10G20KT -TSRA BKN060CB
     FM240900 VRB05KT P6SM FEW080 BKN120
     FM241700 24007KT P6SM VCSH SCT080 BKN100=

USA.gov is the U.S. government's official web portal to all federal, state and local government web resources and services.